Time;durP1;ratioP1;P1;durP2;ratioP2;P2;SDS_P1;SDS_P2;PMS_P1;PMS_P2;Temp;Humidity;BMP_temperature;BMP_pressure;BME280_temperature;BME280_humidity;BME280_pressure;Samples;Min_cycle;Max_cycle;Signal;HPM_P1;HPM_P2
2021/12/18 00:01:47;;;;;;;19.88;12.52;;;9.80;99.90;;;;;;4124956;28;20050;-73
2021/12/18 00:03:48;;;;;;;19.05;12.15;;;9.80;99.90;;;;;;4121940;28;20035;-73
2021/12/18 00:05:49;;;;;;;18.60;12.80;;;9.80;99.90;;;;;;4110257;28;20049;-73
2021/12/18 00:07:50;;;;;;;24.55;13.32;;;9.80;99.90;;;;;;4127618;28;20054;-73
2021/12/18 00:09:52;;;;;;;19.85;12.68;;;9.90;99.90;;;;;;4132237;28;20038;-73
2021/12/18 00:11:53;;;;;;;;;;;9.80;99.90;;;;;;4110580;28;20023;-73
2021/12/18 00:13:54;;;;;;;23.10;12.52;;;9.90;99.90;;;;;;4125173;28;20448;-73
2021/12/18 00:15:55;;;;;;;21.45;13.20;;;9.90;99.90;;;;;;4121152;28;20035;-73
2021/12/18 00:17:56;;;;;;;22.33;13.77;;;9.80;99.90;;;;;;4121617;28;20090;-73
2021/12/18 00:19:57;;;;;;;23.08;13.70;;;9.80;99.90;;;;;;4117828;28;20085;-73
2021/12/18 00:21:57;;;;;;;24.20;14.27;;;9.80;99.90;;;;;;4122419;28;20062;-73
2021/12/18 00:23:58;;;;;;;21.35;14.10;;;9.80;99.90;;;;;;4126640;28;20045;-73
2021/12/18 00:25:59;;;;;;;20.73;12.75;;;9.80;99.90;;;;;;4123296;28;20030;-73
2021/12/18 00:27:59;;;;;;;19.70;12.25;;;9.80;99.90;;;;;;4107672;28;20026;-73
2021/12/18 00:30:00;;;;;;;19.67;12.38;;;9.80;99.90;;;;;;4122898;28;20023;-73
2021/12/18 00:32:01;;;;;;;17.58;10.77;;;9.80;99.90;;;;;;4122199;28;20042;-73
2021/12/18 00:34:02;;;;;;;16.85;10.50;;;9.80;99.90;;;;;;4106237;28;20030;-73
2021/12/18 00:36:02;;;;;;;15.75;9.88;;;9.80;99.90;;;;;;4122275;28;20118;-73
2021/12/18 00:38:05;;;;;;;16.80;9.93;;;9.80;99.90;;;;;;4131611;28;20038;-73
2021/12/18 00:40:10;;;;;;;14.13;9.52;;;9.80;99.90;;;;;;4130088;28;20422;-73
2021/12/18 00:44:26;;;;;;;14.57;9.05;;;9.80;99.90;;;;;;4127211;28;20069;-73
2021/12/18 00:46:32;;;;;;;14.63;8.73;;;9.80;99.90;;;;;;4130783;28;20507;-73
2021/12/18 00:48:33;;;;;;;13.07;7.82;;;9.80;99.90;;;;;;4121264;28;20037;-73
2021/12/18 00:50:34;;;;;;;10.70;7.45;;;9.70;99.90;;;;;;4121714;28;20027;-73
2021/12/18 00:52:34;;;;;;;12.23;8.30;;;9.80;99.90;;;;;;4131345;28;20031;-73
2021/12/18 00:54:37;;;;;;;11.10;7.45;;;9.70;99.90;;;;;;4105064;28;20051;-73
2021/12/18 00:56:38;;;;;;;10.85;7.22;;;9.80;99.90;;;;;;4130053;28;20045;-73
2021/12/18 00:58:38;;;;;;;13.30;8.13;;;9.80;99.90;;;;;;4126022;28;20034;-73
2021/12/18 01:00:41;;;;;;;11.45;7.43;;;9.80;99.90;;;;;;4125187;28;20469;-73
2021/12/18 01:02:44;;;;;;;12.20;7.45;;;9.80;99.90;;;;;;4122083;28;20047;-73
2021/12/18 01:04:45;;;;;;;11.48;7.25;;;9.80;99.90;;;;;;4131162;28;20420;-73
2021/12/18 01:06:45;;;;;;;10.32;7.03;;;9.80;99.90;;;;;;4130848;28;20038;-73
2021/12/18 01:08:50;;;;;;;12.15;7.90;;;9.80;99.90;;;;;;4124380;28;20042;-73
2021/12/18 01:13:12;;;;;;;10.77;7.28;;;9.80;99.90;;;;;;4124187;28;20459;-73
2021/12/18 01:15:18;;;;;;;10.27;6.93;;;9.80;99.90;;;;;;4131093;28;20073;-73
2021/12/18 01:23:58;;;;;;;11.35;7.22;;;9.80;99.90;;;;;;4127543;28;20562;-73
2021/12/18 01:25:59;;;;;;;10.43;6.85;;;9.80;99.90;;;;;;4092879;29;20035;-73
2021/12/18 01:28:00;;;;;;;9.18;6.47;;;9.70;99.90;;;;;;4120802;28;20520;-73
2021/12/18 01:30:01;;;;;;;9.18;6.72;;;9.70;99.90;;;;;;4127499;28;20486;-73
2021/12/18 01:32:02;;;;;;;9.57;6.30;;;9.70;99.90;;;;;;4125771;28;20475;-73
2021/12/18 01:34:03;;;;;;;9.38;6.32;;;9.70;99.90;;;;;;4122047;28;20041;-73
2021/12/18 01:36:04;;;;;;;9.80;5.88;;;9.70;99.90;;;;;;4130997;28;20101;-73
2021/12/18 01:38:05;;;;;;;7.95;5.70;;;9.70;99.90;;;;;;4132523;28;20030;-73
2021/12/18 01:40:07;;;;;;;10.07;6.97;;;9.70;99.90;;;;;;4132510;28;20403;-73
2021/12/18 01:52:56;;;;;;;10.95;7.15;;;9.60;99.90;;;;;;4121698;28;20028;-73
2021/12/18 01:54:56;;;;;;;11.30;6.93;;;9.60;99.90;;;;;;4121771;28;20066;-73
2021/12/18 01:56:59;;;;;;;10.82;6.70;;;9.60;99.90;;;;;;4121116;28;20093;-73
2021/12/18 01:58:59;;;;;;;11.45;7.28;;;9.60;99.90;;;;;;4128084;28;20035;-73
2021/12/18 02:01:04;;;;;;;11.27;7.28;;;9.60;99.90;;;;;;4128220;28;20031;-73
2021/12/18 02:03:05;;;;;;;10.23;6.85;;;9.60;99.90;;;;;;4123872;28;20117;-73
2021/12/18 02:05:07;;;;;;;11.90;7.57;;;9.50;99.90;;;;;;4127559;28;20033;-73
2021/12/18 02:07:07;;;;;;;12.82;7.75;;;9.50;99.90;;;;;;4130135;28;20432;-73
2021/12/18 02:09:09;;;;;;;11.45;7.60;;;9.50;99.90;;;;;;4123475;28;20035;-73
2021/12/18 02:11:24;;;;;;;13.88;8.38;;;9.50;99.90;;;;;;4125842;28;20475;-73
2021/12/18 02:20:40;;;;;;;13.40;7.68;;;9.20;99.90;;;;;;4112821;28;20074;-73
2021/12/18 02:22:41;;;;;;;13.57;8.50;;;9.20;99.90;;;;;;4119754;28;20035;-73
2021/12/18 02:24:42;;;;;;;13.95;8.55;;;9.20;99.90;;;;;;4117567;28;20042;-73
2021/12/18 02:26:43;;;;;;;13.70;8.35;;;9.20;99.90;;;;;;4120965;28;20030;-73
2021/12/18 02:28:46;;;;;;;13.90;8.45;;;9.10;99.90;;;;;;4120788;28;20394;-73
2021/12/18 02:30:49;;;;;;;14.77;7.90;;;9.00;99.90;;;;;;4121349;28;20031;-73
2021/12/18 02:32:50;;;;;;;;;;;9.10;99.90;;;;;;4131077;28;20034;-73
2021/12/18 02:34:56;;;;;;;12.77;7.55;;;9.10;99.90;;;;;;4124621;28;19906;-73
2021/12/18 02:37:05;;;;;;;16.05;8.85;;;9.20;99.90;;;;;;4117127;28;20074;-73
2021/12/18 02:39:40;;;;;;;14.23;8.40;;;9.10;99.90;;;;;;4131100;28;20484;-73
2021/12/18 02:41:45;;;;;;;12.30;7.38;;;9.10;99.90;;;;;;4120832;28;20435;-73
2021/12/18 02:43:46;;;;;;;13.77;8.25;;;9.10;99.90;;;;;;4128022;28;20471;-73
2021/12/18 02:45:46;;;;;;;13.77;8.27;;;9.20;99.90;;;;;;4125532;28;20058;-73
2021/12/18 02:47:48;;;;;;;11.80;7.45;;;9.20;99.90;;;;;;4127085;28;20034;-73
2021/12/18 02:49:51;;;;;;;13.77;8.23;;;9.30;99.90;;;;;;4112831;28;20112;-73
2021/12/18 02:51:51;;;;;;;12.55;7.65;;;9.30;99.90;;;;;;4090544;29;20106;-72
2021/12/18 02:53:54;;;;;;;15.48;8.45;;;9.40;99.90;;;;;;4124632;28;20475;-73
2021/12/18 02:56:01;;;;;;;14.52;8.63;;;9.40;99.90;;;;;;4120340;28;20026;-73
2021/12/18 02:58:01;;;;;;;13.23;8.23;;;9.50;99.90;;;;;;4125266;28;20030;-73
2021/12/18 03:00:03;;;;;;;14.25;8.60;;;9.40;99.90;;;;;;4132167;28;20029;-73
2021/12/18 03:02:04;;;;;;;14.65;8.57;;;9.50;99.90;;;;;;4130074;28;20125;-73
2021/12/18 03:04:15;;;;;;;14.77;8.65;;;9.40;99.90;;;;;;4108718;28;20027;-73
2021/12/18 03:08:33;;;;;;;14.57;8.70;;;9.30;99.90;;;;;;4120612;28;20512;-73
2021/12/18 03:23:57;;;;;;;14.13;9.18;;;9.40;99.90;;;;;;4128237;28;20065;-73
2021/12/18 03:25:59;;;;;;;15.82;9.15;;;9.40;99.90;;;;;;4126330;28;20053;-73
2021/12/18 03:28:02;;;;;;;;;;;9.50;99.90;;;;;;4126549;28;20030;-73
2021/12/18 03:30:05;;;;;;;13.85;8.13;;;9.50;99.90;;;;;;4127337;28;19909;-73
2021/12/18 03:32:06;;;;;;;14.30;8.73;;;9.60;99.90;;;;;;4125959;28;20468;-73
2021/12/18 03:34:06;;;;;;;15.52;9.25;;;9.60;99.90;;;;;;4107395;28;20023;-73
2021/12/18 03:36:07;;;;;;;15.32;9.65;;;9.60;99.90;;;;;;4123505;28;20033;-73
2021/12/18 03:38:09;;;;;;;15.05;9.88;;;9.60;99.90;;;;;;4123616;28;20035;-73
2021/12/18 03:40:14;;;;;;;15.18;9.00;;;9.60;99.90;;;;;;4125914;28;20030;-73
2021/12/18 03:42:15;;;;;;;15.57;9.57;;;9.70;99.90;;;;;;4105888;28;20038;-73
2021/12/18 03:44:16;;;;;;;15.00;9.93;;;9.60;99.90;;;;;;4125244;28;20393;-73
2021/12/18 03:46:16;;;;;;;15.40;9.45;;;9.70;99.90;;;;;;4124190;28;20029;-73
2021/12/18 03:48:17;;;;;;;17.00;10.00;;;9.70;99.90;;;;;;4125552;28;20416;-73
2021/12/18 03:50:19;;;;;;;16.50;9.65;;;9.70;99.90;;;;;;4132060;28;20034;-73
2021/12/18 03:52:19;;;;;;;15.50;9.63;;;9.70;99.90;;;;;;4123821;28;20093;-73
2021/12/18 03:54:20;;;;;;;15.48;9.88;;;9.70;99.90;;;;;;4127918;28;20105;-73
2021/12/18 03:56:21;;;;;;;16.48;10.02;;;9.70;99.90;;;;;;4122433;28;20027;-73
2021/12/18 03:58:21;;;;;;;15.18;9.35;;;9.70;99.90;;;;;;4124301;28;20022;-73
2021/12/18 04:00:22;;;;;;;15.52;9.40;;;9.70;99.90;;;;;;4124681;28;20058;-73
2021/12/18 04:02:23;;;;;;;16.42;9.85;;;9.70;99.90;;;;;;4127494;28;20177;-73
2021/12/18 04:04:23;;;;;;;16.98;9.60;;;9.60;99.90;;;;;;4126666;28;20070;-73
2021/12/18 04:06:24;;;;;;;13.02;8.95;;;9.60;99.90;;;;;;4110311;28;20087;-73
2021/12/18 04:08:25;;;;;;;14.68;8.98;;;9.60;99.90;;;;;;4121570;28;20039;-73
2021/12/18 04:10:25;;;;;;;14.80;8.77;;;9.60;99.90;;;;;;4124669;28;20031;-73
2021/12/18 04:12:26;;;;;;;13.35;8.25;;;9.60;99.90;;;;;;4117067;28;20034;-73
2021/12/18 04:14:27;;;;;;;16.50;9.55;;;9.50;99.90;;;;;;4132148;28;20487;-73
2021/12/18 04:16:28;;;;;;;16.42;9.38;;;9.50;99.90;;;;;;4126161;28;20038;-73
2021/12/18 04:18:29;;;;;;;14.05;8.40;;;9.50;99.90;;;;;;4107817;28;20046;-73
2021/12/18 04:20:29;;;;;;;15.18;8.40;;;9.50;99.90;;;;;;4120735;28;20035;-73
2021/12/18 04:22:30;;;;;;;10.43;7.07;;;9.50;99.90;;;;;;4123017;28;20041;-73
2021/12/18 04:24:31;;;;;;;12.02;7.68;;;9.50;99.90;;;;;;4130821;28;20376;-73
2021/12/18 04:26:32;;;;;;;11.60;7.10;;;9.50;99.90;;;;;;4131627;28;20472;-73
2021/12/18 04:28:33;;;;;;;12.68;7.55;;;9.40;99.90;;;;;;4122619;28;20082;-73
2021/12/18 04:30:34;;;;;;;13.77;8.23;;;9.40;99.90;;;;;;4122352;28;20034;-73
2021/12/18 04:32:34;;;;;;;14.02;7.63;;;9.30;99.90;;;;;;4121735;28;20423;-73
2021/12/18 04:34:35;;;;;;;14.13;7.93;;;9.30;99.90;;;;;;4126004;28;20039;-73
2021/12/18 04:36:36;;;;;;;14.07;7.70;;;9.30;99.90;;;;;;4124710;28;20498;-73
2021/12/18 04:38:37;;;;;;;12.02;7.38;;;9.20;99.90;;;;;;4121248;28;20109;-73
2021/12/18 04:40:40;;;;;;;16.58;8.73;;;9.30;99.90;;;;;;4120412;28;20031;-73
2021/12/18 04:42:41;;;;;;;15.63;8.10;;;9.20;99.90;;;;;;4098291;29;20027;-73
2021/12/18 04:44:42;;;;;;;14.07;8.27;;;9.20;99.90;;;;;;4099969;29;20378;-73
2021/12/18 04:46:42;;;;;;;12.93;7.90;;;9.30;99.90;;;;;;4100965;29;20396;-73
2021/12/18 04:48:43;;;;;;;15.65;8.52;;;9.30;99.90;;;;;;4116187;28;20031;-73
2021/12/18 04:50:44;;;;;;;16.98;9.55;;;9.30;99.90;;;;;;4083885;29;20111;-73
2021/12/18 04:52:45;;;;;;;15.93;8.73;;;9.30;99.90;;;;;;4100057;29;20059;-73
2021/12/18 04:54:46;;;;;;;14.80;8.25;;;9.30;99.90;;;;;;4101222;28;20476;-73
2021/12/18 04:56:46;;;;;;;15.50;9.55;;;9.30;99.90;;;;;;4116726;28;20041;-73
2021/12/18 04:58:47;;;;;;;16.58;9.70;;;9.30;99.90;;;;;;4126906;28;20038;-73
2021/12/18 05:00:48;;;;;;;15.45;9.35;;;9.30;99.90;;;;;;4131357;28;20026;-73
2021/12/18 05:02:51;;;;;;;17.10;9.73;;;9.30;99.90;;;;;;4114816;28;20082;-73
2021/12/18 05:04:52;;;;;;;17.42;10.23;;;9.40;99.90;;;;;;4133212;28;20019;-73
2021/12/18 05:06:53;;;;;;;14.70;8.75;;;9.40;99.90;;;;;;4131569;28;20482;-73
2021/12/18 05:08:54;;;;;;;18.63;10.45;;;9.40;99.90;;;;;;4133148;28;20022;-73
2021/12/18 05:10:55;;;;;;;14.43;8.38;;;9.50;99.90;;;;;;4132640;28;20105;-73
2021/12/18 05:12:55;;;;;;;15.10;9.05;;;9.50;99.90;;;;;;4131724;28;20116;-73
2021/12/18 05:14:56;;;;;;;13.60;7.88;;;9.50;99.90;;;;;;4132067;28;20494;-73
2021/12/18 05:16:57;;;;;;;14.02;8.20;;;9.50;99.90;;;;;;4109055;28;20503;-73
2021/12/18 05:18:57;;;;;;;13.90;8.07;;;9.50;99.90;;;;;;4121594;28;20121;-73
2021/12/18 05:20:58;;;;;;;11.80;7.55;;;9.60;99.90;;;;;;4122221;28;20044;-73
2021/12/18 05:22:59;;;;;;;13.48;7.85;;;9.50;99.90;;;;;;4132846;28;20030;-73
2021/12/18 05:24:59;;;;;;;13.55;7.63;;;9.60;99.90;;;;;;4133389;28;20434;-73
2021/12/18 05:27:00;;;;;;;13.93;8.40;;;9.60;99.90;;;;;;4130384;28;20403;-73
2021/12/18 05:29:01;;;;;;;14.45;8.55;;;9.50;99.90;;;;;;4085870;29;20023;-73
2021/12/18 05:31:01;;;;;;;12.68;6.88;;;9.40;99.90;;;;;;4121950;28;20022;-73
2021/12/18 05:33:02;;;;;;;13.25;7.40;;;9.40;99.90;;;;;;4132778;28;20030;-73
2021/12/18 05:35:04;;;;;;;10.55;6.93;;;9.50;99.90;;;;;;4132715;28;20100;-73
2021/12/18 05:39:18;;;;;;;11.55;7.50;;;9.60;99.90;;;;;;4118862;28;20175;-73
2021/12/18 05:41:19;;;;;;;12.38;7.22;;;9.60;99.90;;;;;;4130179;28;20031;-73
2021/12/18 05:43:19;;;;;;;12.32;7.40;;;9.60;99.90;;;;;;4132634;28;20034;-73
2021/12/18 05:45:20;;;;;;;12.02;6.68;;;9.60;99.90;;;;;;4132062;28;20073;-74
2021/12/18 05:47:21;;;;;;;11.05;6.88;;;9.60;99.90;;;;;;4131695;28;20019;-74
2021/12/18 05:49:21;;;;;;;12.23;7.65;;;9.70;99.90;;;;;;4131207;28;20029;-74
2021/12/18 05:51:23;;;;;;;10.23;6.60;;;9.70;99.90;;;;;;4132155;28;20022;-73
2021/12/18 05:53:23;;;;;;;10.50;6.97;;;9.70;99.90;;;;;;4132610;28;20514;-73
2021/12/18 05:55:25;;;;;;;11.25;6.70;;;9.70;99.90;;;;;;4110237;28;20031;-73
2021/12/18 05:57:26;;;;;;;8.67;5.80;;;9.70;99.90;;;;;;4107866;28;20066;-74
2021/12/18 05:59:26;;;;;;;12.05;6.43;;;9.70;99.90;;;;;;4092204;29;20282;-74
2021/12/18 06:01:27;;;;;;;11.75;6.85;;;9.70;99.90;;;;;;4130004;28;20046;-73
2021/12/18 06:03:28;;;;;;;12.00;7.35;;;9.70;99.90;;;;;;4131189;28;20506;-73
2021/12/18 06:05:28;;;;;;;11.30;7.15;;;9.70;99.90;;;;;;4130727;28;20033;-74
2021/12/18 06:07:31;;;;;;;11.98;6.80;;;9.80;99.90;;;;;;4132201;28;20031;-74
2021/12/18 06:09:35;;;;;;;9.77;6.38;;;9.70;99.90;;;;;;4131365;28;20030;-73
2021/12/18 06:11:38;;;;;;;10.35;6.68;;;9.80;99.90;;;;;;4132017;28;20498;-73
2021/12/18 06:13:40;;;;;;;10.45;6.97;;;9.80;99.90;;;;;;4131193;28;20084;-73
2021/12/18 06:15:40;;;;;;;11.40;6.83;;;9.80;99.90;;;;;;4131985;28;20501;-73
2021/12/18 06:17:41;;;;;;;10.77;6.45;;;9.80;99.90;;;;;;4130982;28;20288;-73
2021/12/18 06:19:42;;;;;;;12.20;7.03;;;9.80;99.90;;;;;;4131156;28;20173;-73
2021/12/18 06:21:42;;;;;;;10.93;6.68;;;9.80;99.90;;;;;;4114625;28;20503;-73
2021/12/18 06:23:47;;;;;;;12.30;7.43;;;9.90;99.90;;;;;;4131031;28;20576;-73
2021/12/18 06:25:47;;;;;;;12.75;7.78;;;9.90;99.90;;;;;;4130399;28;20081;-73
2021/12/18 06:27:48;;;;;;;12.25;6.95;;;9.90;99.90;;;;;;4114895;28;20027;-73
2021/12/18 06:29:49;;;;;;;10.50;6.53;;;9.90;99.90;;;;;;4131333;28;20057;-73
2021/12/18 06:31:49;;;;;;;11.68;7.05;;;9.90;99.90;;;;;;4130583;28;20022;-73
2021/12/18 06:33:50;;;;;;;10.10;6.35;;;9.90;99.90;;;;;;4132406;28;20066;-73
2021/12/18 06:35:51;;;;;;;10.40;6.75;;;9.90;99.90;;;;;;4131533;28;20061;-73
2021/12/18 06:37:52;;;;;;;10.95;6.90;;;9.90;99.90;;;;;;4132349;28;20035;-73
2021/12/18 06:39:52;;;;;;;10.80;6.15;;;9.90;99.90;;;;;;4131241;28;20550;-73
2021/12/18 06:41:53;;;;;;;11.38;7.25;;;9.90;99.90;;;;;;4130850;28;20054;-73
2021/12/18 06:43:54;;;;;;;11.20;7.07;;;9.90;99.90;;;;;;4130661;28;20034;-73
2021/12/18 06:45:55;;;;;;;10.38;6.90;;;9.90;99.90;;;;;;4131748;28;20053;-73
2021/12/18 06:47:55;;;;;;;11.07;6.90;;;9.90;99.90;;;;;;4130764;28;20030;-73
2021/12/18 06:49:56;;;;;;;12.05;7.10;;;10.00;99.90;;;;;;4114788;28;20121;-73
2021/12/18 06:51:57;;;;;;;11.13;6.68;;;9.90;99.90;;;;;;4132639;28;20072;-73
2021/12/18 06:53:58;;;;;;;9.95;6.22;;;9.90;99.90;;;;;;4134986;28;20407;-73
2021/12/18 06:55:59;;;;;;;13.65;7.65;;;10.00;99.90;;;;;;4133539;28;20030;-74
2021/12/18 06:58:00;;;;;;;11.75;7.00;;;10.00;99.90;;;;;;4131769;28;20037;-73
2021/12/18 07:00:00;;;;;;;10.85;6.68;;;10.00;99.90;;;;;;4122908;28;20115;-73
2021/12/18 07:02:01;;;;;;;9.30;5.90;;;10.00;99.90;;;;;;4123095;28;20046;-74
2021/12/18 07:04:02;;;;;;;9.50;5.75;;;9.90;99.90;;;;;;4160929;23;20066;-64
2021/12/18 07:06:13;;;;;;;9.75;6.30;;;10.00;99.90;;;;;;4133168;28;20022;-64
2021/12/18 07:08:14;;;;;;;10.23;6.68;;;10.00;99.90;;;;;;4140323;28;20035;-64
2021/12/18 07:10:15;;;;;;;11.10;6.25;;;10.00;99.90;;;;;;4147589;28;20040;-65
2021/12/18 07:12:16;;;;;;;10.63;6.93;;;10.00;99.90;;;;;;4140809;28;20116;-64
2021/12/18 07:14:17;;;;;;;11.00;6.72;;;10.00;99.90;;;;;;4133898;28;20399;-65
2021/12/18 07:16:17;;;;;;;11.85;6.93;;;10.00;99.90;;;;;;4139895;28;20105;-65
2021/12/18 07:18:18;;;;;;;9.82;6.03;;;10.00;99.90;;;;;;4139555;28;20035;-65
2021/12/18 07:20:19;;;;;;;10.57;6.68;;;10.00;99.90;;;;;;4146127;28;20036;-65
2021/12/18 07:22:19;;;;;;;11.25;7.13;;;10.00;99.90;;;;;;4129310;28;20089;-64
2021/12/18 07:24:20;;;;;;;12.48;6.85;;;10.00;99.90;;;;;;4147553;28;20037;-64
2021/12/18 07:26:20;;;;;;;12.52;6.85;;;10.00;99.90;;;;;;4136744;28;20069;-64
2021/12/18 07:28:21;;;;;;;10.05;6.25;;;10.00;99.90;;;;;;4143049;28;20034;-64
2021/12/18 07:30:22;;;;;;;10.02;6.22;;;10.00;99.90;;;;;;4140044;28;20037;-65
2021/12/18 07:32:23;;;;;;;10.43;6.28;;;10.00;99.90;;;;;;4143503;28;20026;-64
2021/12/18 07:34:23;;;;;;;11.93;7.57;;;10.00;99.90;;;;;;4144164;28;20036;-64
2021/12/18 07:36:24;;;;;;;11.57;7.13;;;10.00;99.90;;;;;;4142019;28;20034;-64
2021/12/18 07:38:25;;;;;;;10.88;6.95;;;10.00;99.90;;;;;;4142908;28;20038;-64
2021/12/18 07:40:25;;;;;;;12.52;6.57;;;10.00;99.90;;;;;;4138991;28;20540;-65
2021/12/18 07:42:26;;;;;;;11.88;7.25;;;10.00;99.90;;;;;;4139612;28;20031;-64
2021/12/18 07:44:27;;;;;;;14.23;8.27;;;10.00;99.90;;;;;;4145498;28;20038;-64
2021/12/18 07:46:28;;;;;;;12.15;6.90;;;10.00;99.90;;;;;;4142878;28;20487;-65
2021/12/18 07:48:29;;;;;;;10.50;6.38;;;10.00;99.90;;;;;;4139905;28;20429;-64
2021/12/18 07:50:30;;;;;;;11.65;6.65;;;10.00;99.90;;;;;;4138916;28;20039;-65
2021/12/18 07:52:31;;;;;;;9.88;6.43;;;10.00;99.90;;;;;;4139520;28;20034;-64
2021/12/18 07:54:31;;;;;;;11.32;6.57;;;10.00;99.90;;;;;;4139348;28;20437;-64
2021/12/18 07:56:33;;;;;;;11.75;6.70;;;10.00;99.90;;;;;;4138515;28;20039;-64
2021/12/18 07:58:34;;;;;;;11.00;6.63;;;10.00;99.90;;;;;;4139206;28;20262;-64
2021/12/18 08:00:35;;;;;;;13.10;7.10;;;10.00;99.90;;;;;;4143663;28;20035;-65
2021/12/18 08:02:36;;;;;;;12.38;7.53;;;10.00;99.90;;;;;;4130638;28;20150;-65
2021/12/18 08:04:36;;;;;;;11.55;6.63;;;10.00;99.90;;;;;;4136149;28;20128;-64
2021/12/18 08:06:37;;;;;;;14.38;7.30;;;10.00;99.90;;;;;;4138172;28;20030;-65
2021/12/18 08:08:38;;;;;;;14.98;8.50;;;9.90;99.90;;;;;;4142102;28;20034;-64
2021/12/18 08:10:38;;;;;;;11.05;7.15;;;10.00;99.90;;;;;;4138776;28;20041;-64
2021/12/18 08:12:39;;;;;;;12.60;7.75;;;10.00;99.90;;;;;;4139787;28;20440;-64
2021/12/18 08:14:40;;;;;;;12.65;8.02;;;10.00;99.90;;;;;;4144007;28;20022;-64
2021/12/18 08:16:40;;;;;;;12.98;7.78;;;10.00;99.90;;;;;;4145582;28;20483;-64
2021/12/18 08:18:41;;;;;;;11.57;7.40;;;10.00;99.90;;;;;;4141539;28;20041;-64
2021/12/18 08:20:42;;;;;;;10.95;7.18;;;10.00;99.90;;;;;;4138830;28;20446;-64
2021/12/18 08:22:43;;;;;;;12.85;7.80;;;10.00;99.90;;;;;;4139518;28;20046;-64
2021/12/18 08:24:44;;;;;;;13.68;8.13;;;10.00;99.90;;;;;;4143715;28;20111;-64
2021/12/18 08:26:44;;;;;;;16.17;8.20;;;10.00;99.90;;;;;;4146132;28;20477;-64
2021/12/18 08:28:45;;;;;;;14.05;7.88;;;10.00;99.90;;;;;;4141714;28;20022;-64
2021/12/18 08:30:46;;;;;;;15.30;8.63;;;10.00;99.90;;;;;;4143586;28;20026;-64
2021/12/18 08:32:46;;;;;;;16.95;9.27;;;10.00;99.90;;;;;;4143674;28;20074;-65
2021/12/18 08:34:47;;;;;;;17.15;9.18;;;10.00;99.90;;;;;;4139005;28;20034;-64
2021/12/18 08:36:48;;;;;;;20.13;9.85;;;10.00;99.90;;;;;;4138562;28;20062;-64
2021/12/18 08:38:48;;;;;;;14.38;8.77;;;10.00;99.90;;;;;;4141884;28;20397;-64
2021/12/18 08:40:50;;;;;;;15.10;8.55;;;9.90;99.90;;;;;;4140042;28;20062;-64
2021/12/18 08:42:51;;;;;;;15.50;8.70;;;9.90;99.90;;;;;;4143032;28;20097;-64
2021/12/18 08:44:52;;;;;;;17.27;9.00;;;9.90;99.90;;;;;;4139171;28;20030;-64
2021/12/18 08:46:52;;;;;;;18.52;10.02;;;9.90;99.90;;;;;;4138656;28;20053;-64
2021/12/18 08:48:53;;;;;;;13.55;8.65;;;10.00;99.90;;;;;;4138943;28;20057;-64
2021/12/18 08:50:53;;;;;;;16.45;9.18;;;10.00;99.90;;;;;;4138030;28;20030;-65
2021/12/18 08:52:54;;;;;;;16.45;9.30;;;10.00;99.90;;;;;;4138554;28;20448;-64
2021/12/18 08:54:55;;;;;;;14.68;8.48;;;10.00;99.90;;;;;;4144171;28;20041;-64
2021/12/18 08:56:55;;;;;;;15.98;8.90;;;10.00;99.90;;;;;;4138611;28;20069;-64
2021/12/18 08:58:58;;;;;;;18.25;10.38;;;10.00;99.90;;;;;;4148319;28;20041;-64
2021/12/18 09:00:59;;;;;;;14.75;8.40;;;10.00;99.90;;;;;;4137283;28;20040;-64
2021/12/18 09:03:00;;;;;;;16.88;9.18;;;10.00;99.90;;;;;;4137604;28;20035;-64
2021/12/18 09:05:01;;;;;;;14.70;8.60;;;10.00;99.90;;;;;;4145285;28;20052;-64
2021/12/18 09:07:02;;;;;;;13.23;7.95;;;10.00;99.90;;;;;;4140215;28;20033;-64
2021/12/18 09:09:03;;;;;;;15.38;8.32;;;10.00;99.90;;;;;;4143249;28;20458;-64
2021/12/18 09:11:04;;;;;;;12.10;7.00;;;10.10;99.90;;;;;;4138540;28;20476;-64
2021/12/18 09:13:04;;;;;;;10.02;6.15;;;10.00;99.90;;;;;;4143454;28;20091;-64
2021/12/18 09:15:06;;;;;;;8.80;5.20;;;10.00;99.90;;;;;;4143150;28;20033;-64
2021/12/18 09:17:07;;;;;;;7.47;4.60;;;10.00;99.90;;;;;;4138227;28;20042;-64
2021/12/18 09:19:08;;;;;;;7.38;4.78;;;10.00;99.90;;;;;;4138549;28;20050;-64
2021/12/18 09:21:09;;;;;;;6.03;3.88;;;10.00;99.90;;;;;;4137803;28;20450;-64
2021/12/18 09:23:09;;;;;;;6.22;3.60;;;10.00;99.90;;;;;;4138261;28;20046;-64
2021/12/18 09:25:10;;;;;;;5.88;3.67;;;10.00;99.90;;;;;;4137961;28;20030;-66
2021/12/18 09:27:11;;;;;;;5.53;3.65;;;10.00;99.90;;;;;;4138522;28;20089;-64
2021/12/18 09:29:11;;;;;;;6.82;4.25;;;10.00;99.90;;;;;;4138268;28;20089;-64
2021/12/18 09:31:12;;;;;;;5.22;3.42;;;10.00;99.90;;;;;;4144759;28;20026;-64
2021/12/18 09:33:16;;;;;;;5.40;3.47;;;10.10;99.90;;;;;;4140163;28;20110;-64
2021/12/18 09:35:16;;;;;;;5.78;3.60;;;10.10;99.90;;;;;;4142306;28;20076;-65
2021/12/18 09:37:17;;;;;;;7.53;3.38;;;10.10;99.90;;;;;;4143071;28;20175;-65
2021/12/18 09:39:18;;;;;;;4.85;3.35;;;10.10;99.90;;;;;;4139144;28;20037;-65
2021/12/18 09:41:19;;;;;;;5.38;3.42;;;10.10;99.90;;;;;;4124781;28;20058;-64
2021/12/18 09:43:22;;;;;;;5.17;3.30;;;10.10;99.90;;;;;;4140324;28;20042;-64
2021/12/18 09:45:24;;;;;;;4.90;3.33;;;10.10;99.90;;;;;;4141646;28;20038;-65
2021/12/18 09:47:25;;;;;;;5.15;3.25;;;10.10;99.90;;;;;;4140978;28;20037;-65
2021/12/18 09:49:27;;;;;;;5.15;3.35;;;10.10;99.90;;;;;;4138946;28;20072;-65
2021/12/18 09:51:27;;;;;;;6.53;3.53;;;10.10;99.90;;;;;;4138121;28;20041;-64
2021/12/18 09:53:28;;;;;;;5.80;3.03;;;10.10;99.90;;;;;;4141377;28;20042;-64
2021/12/18 09:55:28;;;;;;;7.05;3.55;;;10.10;99.90;;;;;;4138849;28;20080;-65
2021/12/18 09:57:29;;;;;;;5.20;3.40;;;10.10;99.90;;;;;;4143262;28;20161;-65
2021/12/18 09:59:29;;;;;;;4.82;3.00;;;10.20;99.90;;;;;;4139297;28;20034;-64
2021/12/18 10:01:31;;;;;;;5.60;3.30;;;10.20;99.90;;;;;;4138222;28;20523;-64
2021/12/18 10:03:51;;;;;;;6.82;3.47;;;10.20;99.90;;;;;;4138161;28;20058;-65
2021/12/18 10:05:51;;;;;;;4.97;2.72;;;10.20;99.90;;;;;;4142473;28;20376;-65
2021/12/18 10:08:11;;;;;;;3.67;2.40;;;10.10;99.90;;;;;;4147251;28;20037;-64
2021/12/18 10:10:11;;;;;;;4.97;2.63;;;10.20;99.90;;;;;;4125667;28;20102;-65
2021/12/18 10:12:40;;;;;;;4.25;2.63;;;10.10;99.90;;;;;;4140473;28;20034;-65
2021/12/18 10:14:48;;;;;;;4.15;2.35;;;10.10;99.90;;;;;;4131890;28;20088;-65
2021/12/18 10:16:51;;;;;;;4.35;2.10;;;10.10;99.90;;;;;;4138158;28;20034;-65
2021/12/18 10:18:52;;;;;;;3.75;2.22;;;10.10;99.90;;;;;;4140544;28;20034;-64
2021/12/18 10:21:07;;;;;;;4.53;2.40;;;10.10;99.90;;;;;;4124782;28;20046;-64
2021/12/18 10:23:08;;;;;;;3.20;2.05;;;10.10;99.90;;;;;;4137892;28;20038;-65
2021/12/18 10:25:10;;;;;;;4.65;2.33;;;10.10;99.90;;;;;;4141524;28;20152;-66
2021/12/18 10:27:18;;;;;;;3.75;2.33;;;10.10;99.90;;;;;;4139004;28;20031;-66
2021/12/18 10:29:35;;;;;;;2.95;2.00;;;10.10;99.90;;;;;;4147206;28;20030;-65
2021/12/18 10:31:45;;;;;;;2.67;1.67;;;10.10;99.90;;;;;;4138945;28;20088;-65
2021/12/18 10:33:46;;;;;;;2.53;1.58;;;10.10;99.90;;;;;;4135001;28;20030;-65
2021/12/18 10:35:56;;;;;;;4.97;1.98;;;10.10;99.90;;;;;;4145177;28;20045;-66
2021/12/18 10:37:56;;;;;;;3.70;2.17;;;10.00;99.90;;;;;;4143484;28;20032;-65
2021/12/18 10:40:00;;;;;;;2.58;1.95;;;10.00;99.90;;;;;;4141170;28;20395;-65
2021/12/18 10:42:50;;;;;;;2.65;1.58;;;9.90;99.90;;;;;;4140629;28;20027;-65
2021/12/18 10:45:33;;;;;;;3.55;1.92;;;9.90;99.90;;;;;;4132916;28;20073;-65
2021/12/18 10:47:53;;;;;;;2.05;1.40;;;9.80;99.90;;;;;;4134565;28;20033;-65
2021/12/18 10:49:54;;;;;;;2.35;1.60;;;9.80;99.90;;;;;;4141062;28;20481;-65
2021/12/18 10:51:57;;;;;;;2.55;1.52;;;9.80;99.90;;;;;;4140224;28;20041;-65
2021/12/18 10:54:18;;;;;;;1.58;1.25;;;9.70;99.90;;;;;;4141579;28;20501;-65
2021/12/18 10:56:40;;;;;;;5.18;1.80;;;9.80;99.90;;;;;;4140426;28;20027;-65
2021/12/18 10:58:41;;;;;;;3.40;1.65;;;9.70;99.90;;;;;;4145773;28;20033;-65
2021/12/18 11:00:41;;;;;;;3.45;1.60;;;9.70;99.90;;;;;;4139736;28;20065;-65
2021/12/18 11:02:43;;;;;;;3.75;1.52;;;9.70;99.90;;;;;;4148455;28;20376;-65
2021/12/18 11:04:44;;;;;;;3.38;1.58;;;9.70;99.90;;;;;;4137349;28;20051;-65
2021/12/18 11:06:45;;;;;;;3.45;1.48;;;9.60;99.90;;;;;;4139603;28;20092;-65
2021/12/18 11:09:06;;;;;;;2.15;1.40;;;9.60;99.90;;;;;;4142774;28;20427;-65
2021/12/18 11:13:45;;;;;;;1.75;1.17;;;9.60;99.90;;;;;;4135419;28;20445;-65
2021/12/18 11:15:45;;;;;;;2.20;1.60;;;9.70;99.90;;;;;;4146328;28;20044;-65
2021/12/18 11:17:47;;;;;;;1.48;1.23;;;9.60;99.90;;;;;;4145767;28;20022;-65
2021/12/18 11:19:49;;;;;;;1.67;1.10;;;9.70;99.90;;;;;;4146055;28;20030;-65
2021/12/18 11:21:55;;;;;;;2.83;1.77;;;9.70;99.90;;;;;;4137094;28;20033;-65
2021/12/18 11:24:05;;;;;;;2.13;1.40;;;9.70;99.90;;;;;;4143423;28;20042;-65
2021/12/18 11:26:08;;;;;;;2.42;1.23;;;9.60;99.90;;;;;;4138819;28;20033;-65